Time;durP1;ratioP1;P1;durP2;ratioP2;P2;SDS_P1;SDS_P2;PMS_P1;PMS_P2;Temp;Humidity;BMP_temperature;BMP_pressure;BME280_temperature;BME280_humidity;BME280_pressure;Samples;Min_cycle;Max_cycle;Signal;HPM_P1;HPM_P2
2021/08/19 00:01:20;;;;;;;13.05;11.65;;;;;;;25.98;59.26;100958.59;1665248;85;21151;-50
2021/08/19 00:03:46;;;;;;;13.85;10.88;;;;;;;25.89;59.40;100952.67;1662582;85;21024;-50
2021/08/19 00:06:13;;;;;;;19.90;11.03;;;;;;;25.89;59.40;100952.67;1653893;84;21636;-50
2021/08/19 00:08:42;;;;;;;15.23;11.28;;;;;;;25.84;60.13;100965.90;1665873;85;21009;-49
2021/08/19 00:11:10;;;;;;;16.35;10.48;;;;;;;25.81;60.03;100986.16;1662036;85;21020;-50
2021/08/19 00:13:39;;;;;;;11.47;10.00;;;;;;;25.81;60.03;100986.16;1666065;85;21060;-50
2021/08/19 00:16:07;;;;;;;12.58;9.85;;;;;;;25.77;59.99;100984.72;1665695;85;21286;-49
2021/08/19 00:18:35;;;;;;;11.22;9.75;;;;;;;25.97;59.58;100988.89;1654043;85;21036;-49
2021/08/19 00:21:05;;;;;;;17.05;10.00;;;;;;;25.91;59.34;100988.05;1659541;85;21441;-50
2021/08/19 00:23:34;;;;;;;13.83;9.88;;;;;;;25.69;59.75;100977.83;1665970;85;21084;-50
2021/08/19 00:26:04;;;;;;;10.30;9.30;;;;;;;25.63;59.95;100996.98;1665452;85;21087;-49
2021/08/19 00:28:32;;;;;;;11.15;9.23;;;;;;;25.60;60.14;101001.21;1663214;85;21084;-50
2021/08/19 00:31:00;;;;;;;13.95;9.53;;;;;;;25.56;60.45;101005.09;1664764;85;21555;-50
2021/08/19 00:33:27;;;;;;;12.75;9.68;;;;;;;25.54;60.18;100999.04;1649570;85;21025;-50
2021/08/19 00:35:56;;;;;;;10.13;9.13;;;;;;;25.53;60.25;101007.98;1667527;84;21068;-49
2021/08/19 00:38:23;;;;;;;9.38;8.40;;;;;;;25.51;60.43;101012.59;1665855;85;21056;-49
2021/08/19 00:40:50;;;;;;;12.10;9.85;;;;;;;25.49;60.84;101019.86;1663505;85;21560;-49
2021/08/19 00:43:19;;;;;;;10.80;8.95;;;;;;;25.48;60.91;101019.99;1663014;85;21072;-50
2021/08/19 00:45:47;;;;;;;10.65;8.73;;;;;;;25.47;61.00;101019.14;1663204;85;21035;-49
2021/08/19 00:48:15;;;;;;;13.85;9.78;;;;;;;25.47;61.01;101012.48;1663044;85;21036;-50
2021/08/19 00:50:44;;;;;;;11.25;9.15;;;;;;;25.46;60.72;101013.94;1662114;85;21040;-49
2021/08/19 00:53:13;;;;;;;10.63;9.00;;;;;;;25.48;60.56;101016.84;1669749;85;21119;-49
2021/08/19 00:55:39;;;;;;;10.25;9.15;;;;;;;25.48;60.56;101016.84;1664457;85;21080;-49
2021/08/19 00:58:08;;;;;;;9.55;8.65;;;;;;;25.42;60.79;101017.81;1652959;85;21092;-50
2021/08/19 01:00:34;;;;;;;15.32;9.63;;;;;;;25.40;60.73;101021.91;1670605;85;21001;-50
2021/08/19 01:03:01;;;;;;;12.33;9.50;;;;;;;25.39;60.67;101025.52;1666009;85;20997;-50
2021/08/19 01:05:30;;;;;;;10.38;8.88;;;;;;;25.38;60.60;101045.16;1663593;85;21041;-49
2021/08/19 01:07:59;;;;;;;9.55;8.65;;;;;;;25.36;60.16;101038.25;1663325;85;21449;-49
2021/08/19 01:10:29;;;;;;;10.05;8.33;;;;;;;25.54;60.19;101027.02;1663139;85;21052;-49
2021/08/19 01:12:55;;;;;;;11.08;8.65;;;;;;;25.77;59.62;101013.19;1663379;85;21028;-50
2021/08/19 01:15:24;;;;;;;9.93;9.03;;;;;;;25.77;59.62;101013.19;1662975;85;21088;-49
2021/08/19 01:17:58;;;;;;;15.60;9.28;;;;;;;25.37;60.79;101008.81;1664205;85;21577;-49
2021/08/19 01:20:32;;;;;;;13.83;8.55;;;;;;;25.30;60.82;101011.62;1660071;85;21085;-50
2021/08/19 01:22:59;;;;;;;11.68;9.15;;;;;;;25.28;60.51;101012.23;1643130;86;21060;-49
2021/08/19 01:25:27;;;;;;;12.33;8.80;;;;;;;25.24;60.54;101009.44;1646405;86;21083;-49
2021/08/19 01:27:55;;;;;;;9.78;8.40;;;;;;;25.22;60.77;101018.52;1644225;86;21138;-50
2021/08/19 01:30:23;;;;;;;12.00;9.60;;;;;;;25.54;60.31;101003.52;1643838;86;21043;-49
2021/08/19 01:32:50;;;;;;;9.93;8.93;;;;;;;25.54;60.31;101003.52;1634445;86;21516;-49
2021/08/19 01:35:23;;;;;;;12.18;9.50;;;;;;;25.36;60.86;100999.63;1639727;86;21059;-49
2021/08/19 01:37:50;;;;;;;11.08;9.70;;;;;;;25.21;60.75;100985.70;1642638;86;21052;-49
2021/08/19 01:40:19;;;;;;;13.38;9.28;;;;;;;25.24;60.77;100996.13;1639095;87;21021;-50
2021/08/19 01:42:47;;;;;;;13.20;9.65;;;;;;;25.18;60.67;101001.94;1636883;87;21095;-49
2021/08/19 01:45:16;;;;;;;12.45;9.65;;;;;;;25.16;60.78;101006.53;1638439;87;21547;-50
2021/08/19 01:47:45;;;;;;;11.68;9.50;;;;;;;25.13;60.69;101013.41;1638520;87;21117;-50
2021/08/19 01:50:13;;;;;;;10.82;8.75;;;;;;;25.10;60.83;101014.15;1639082;87;21588;-49
2021/08/19 01:52:42;;;;;;;50.48;10.48;;;;;;;25.09;60.67;101012.44;1639220;87;21325;-50
2021/08/19 01:55:12;;;;;;;9.75;8.75;;;;;;;25.07;61.10;101015.23;1638398;87;21579;-49
2021/08/19 01:57:39;;;;;;;9.68;8.63;;;;;;;25.06;61.09;101020.17;1637127;87;21032;-49
2021/08/19 02:00:07;;;;;;;9.55;8.08;;;;;;;25.06;61.47;101021.50;1636642;87;20988;-49
2021/08/19 02:02:37;;;;;;;10.25;8.73;;;;;;;25.07;61.49;101033.87;1636647;87;21119;-49
2021/08/19 02:05:07;;;;;;;11.08;8.30;;;;;;;25.09;61.65;101043.91;1636829;87;21013;-50
2021/08/19 02:07:34;;;;;;;9.68;7.80;;;;;;;25.09;61.30;101050.57;1636481;87;21048;-49
2021/08/19 02:10:03;;;;;;;12.33;8.23;;;;;;;25.08;61.22;101051.52;1638328;87;21064;-49
2021/08/19 02:12:30;;;;;;;9.35;7.70;;;;;;;25.08;61.08;101056.84;1639381;87;21037;-50
2021/08/19 02:14:57;;;;;;;10.25;7.53;;;;;;;25.09;61.23;101063.03;1639046;87;21048;-49
2021/08/19 02:17:24;;;;;;;9.73;7.85;;;;;;;25.09;61.06;101077.20;1636639;87;21028;-50
2021/08/19 02:19:52;;;;;;;11.48;7.55;;;;;;;25.09;60.86;101085.19;1652771;85;21100;-49
2021/08/19 02:22:20;;;;;;;7.72;6.83;;;;;;;25.12;60.40;101096.09;1663296;85;21145;-49
2021/08/19 02:24:48;;;;;;;9.48;7.78;;;;;;;25.08;60.79;101090.13;1667159;85;21053;-49
2021/08/19 02:27:15;;;;;;;6.75;6.15;;;;;;;25.08;60.87;101093.30;1665483;85;21088;-49
2021/08/19 02:29:42;;;;;;;8.88;7.70;;;;;;;25.06;60.53;101090.73;1651060;85;21525;-50
2021/08/19 02:32:08;;;;;;;8.15;6.95;;;;;;;25.01;60.86;101092.44;1665085;85;21108;-51
2021/08/19 02:34:36;;;;;;;8.13;7.30;;;;;;;24.94;61.38;101107.65;1665852;85;21102;-50
2021/08/19 02:37:03;;;;;;;8.00;6.20;;;;;;;24.91;61.65;101115.88;1665838;85;21060;-49
2021/08/19 02:39:30;;;;;;;6.40;5.35;;;;;;;24.87;60.74;101111.75;1665014;84;21056;-49
2021/08/19 02:41:56;;;;;;;6.17;5.17;;;;;;;24.81;60.55;101112.22;1662815;85;21023;-49
2021/08/19 02:44:24;;;;;;;7.97;6.17;;;;;;;24.75;60.69;101113.50;1663445;85;20973;-49
2021/08/19 02:46:51;;;;;;;7.65;5.97;;;;;;;24.73;61.28;101103.93;1662723;85;21021;-49
2021/08/19 02:49:17;;;;;;;6.35;5.53;;;;;;;24.69;61.36;101117.10;1663021;85;21048;-49
2021/08/19 02:51:46;;;;;;;6.80;5.08;;;;;;;24.67;61.72;101125.17;1664359;85;21088;-49
2021/08/19 02:54:12;;;;;;;6.00;4.85;;;;;;;24.65;61.65;101137.74;1666066;85;21016;-49
2021/08/19 02:56:40;;;;;;;8.00;4.55;;;;;;;24.64;61.39;101129.41;1665536;85;21052;-49
2021/08/19 02:59:07;;;;;;;5.92;4.75;;;;;;;24.62;61.23;101114.52;1669576;85;21021;-49
2021/08/19 03:01:34;;;;;;;6.80;4.97;;;;;;;24.64;61.70;101113.92;1664932;85;21512;-50
2021/08/19 03:04:01;;;;;;;7.75;4.72;;;;;;;24.65;62.01;101104.95;1664986;85;21104;-49
2021/08/19 03:06:28;;;;;;;4.83;4.40;;;;;;;24.66;61.93;101097.36;1667260;85;21028;-49
2021/08/19 03:08:54;;;;;;;5.60;5.00;;;;;;;24.69;62.12;101102.46;1665874;85;21513;-50
2021/08/19 03:11:23;;;;;;;6.28;5.47;;;;;;;24.70;62.23;101117.45;1650260;85;21045;-50
2021/08/19 03:13:49;;;;;;;7.55;5.97;;;;;;;24.67;62.01;101120.33;1661461;85;21060;-49
2021/08/19 03:16:16;;;;;;;5.95;5.00;;;;;;;24.64;62.03;101136.06;1667891;85;21537;-49
2021/08/19 03:18:44;;;;;;;6.08;5.40;;;;;;;24.64;62.13;101145.85;1638125;85;21839;-48
2021/08/19 03:21:12;;;;;;;5.70;5.20;;;;;;;24.72;61.85;101142.14;1663313;85;21068;-48
2021/08/19 03:23:40;;;;;;;5.65;5.15;;;;;;;24.71;61.83;101129.81;1663389;85;21048;-47
2021/08/19 03:26:08;;;;;;;5.30;4.80;;;;;;;24.70;61.99;101127.63;1665123;85;21127;-48
2021/08/19 03:28:35;;;;;;;6.87;5.58;;;;;;;24.68;61.94;101130.02;1663935;84;21041;-50
2021/08/19 03:31:02;;;;;;;7.45;5.25;;;;;;;24.65;62.05;101127.57;1663432;85;21052;-52
2021/08/19 03:33:30;;;;;;;6.22;5.17;;;;;;;24.60;61.87;101133.27;1661444;85;21071;-51
2021/08/19 03:35:58;;;;;;;5.60;5.08;;;;;;;24.59;61.82;101125.37;1669619;84;21096;-51
2021/08/19 03:38:26;;;;;;;5.35;4.85;;;;;;;24.58;61.90;101125.02;1664544;85;21044;-48
2021/08/19 03:40:52;;;;;;;5.30;4.60;;;;;;;24.57;61.91;101121.97;1662938;85;21508;-49
2021/08/19 03:43:20;;;;;;;6.25;4.78;;;;;;;24.54;62.04;101119.09;1664086;85;21596;-47
2021/08/19 03:45:47;;;;;;;5.58;4.72;;;;;;;24.50;62.44;101110.11;1663398;85;21033;-51
2021/08/19 03:48:15;;;;;;;6.85;5.40;;;;;;;24.48;62.41;101106.70;1662914;85;21291;-47
2021/08/19 03:50:42;;;;;;;5.53;4.90;;;;;;;24.46;62.58;101101.98;1664058;85;21517;-47
2021/08/19 03:53:09;;;;;;;6.55;5.75;;;;;;;24.45;62.95;101100.27;1663312;85;21052;-48
2021/08/19 03:55:36;;;;;;;5.60;4.45;;;;;;;24.45;63.10;101089.16;1660867;85;21251;-48
2021/08/19 03:58:03;;;;;;;5.30;4.50;;;;;;;24.43;63.21;101084.91;1663325;85;21029;-48
2021/08/19 04:00:30;;;;;;;5.45;4.78;;;;;;;24.41;62.97;101085.03;1663341;85;21505;-48
2021/08/19 04:02:58;;;;;;;4.45;4.05;;;;;;;24.37;63.04;101081.37;1662957;85;21092;-50
2021/08/19 04:05:25;;;;;;;4.75;4.30;;;;;;;24.33;62.88;101094.52;1662896;85;21064;-47
2021/08/19 04:07:52;;;;;;;5.90;4.78;;;;;;;24.24;62.71;101086.27;1664081;85;21555;-50
2021/08/19 04:10:20;;;;;;;7.03;4.65;;;;;;;24.20;63.11;101092.77;1659724;84;21088;-53
2021/08/19 04:12:48;;;;;;;6.58;5.20;;;;;;;24.16;63.27;101093.95;1665988;85;21065;-49
2021/08/19 04:15:14;;;;;;;5.70;4.80;;;;;;;24.12;63.38;101091.15;1664963;85;21028;-49
2021/08/19 04:17:43;;;;;;;5.67;5.10;;;;;;;24.11;63.67;101093.42;1663433;85;21060;-50
2021/08/19 04:20:12;;;;;;;7.28;5.83;;;;;;;24.10;63.79;101097.06;1668288;85;21104;-50
2021/08/19 04:22:38;;;;;;;8.53;5.90;;;;;;;24.09;63.96;101108.64;1665939;85;21055;-50
2021/08/19 04:25:06;;;;;;;6.83;5.37;;;;;;;24.08;63.90;101102.97;1651059;85;21568;-47
2021/08/19 04:27:33;;;;;;;7.67;6.20;;;;;;;24.07;63.90;101106.57;1664981;85;21053;-49
2021/08/19 04:30:00;;;;;;;6.30;5.47;;;;;;;24.07;63.89;101103.91;1666634;85;21088;-52
2021/08/19 04:32:26;;;;;;;7.70;5.42;;;;;;;24.06;64.06;101098.24;1666004;85;21035;-52
2021/08/19 04:34:52;;;;;;;5.95;5.22;;;;;;;24.05;63.90;101093.87;1665113;85;21052;-48
2021/08/19 04:37:20;;;;;;;7.20;5.08;;;;;;;24.05;64.02;101087.73;1664314;85;21048;-48
2021/08/19 04:39:47;;;;;;;5.62;5.00;;;;;;;24.05;63.97;101090.38;1663240;84;21465;-50
2021/08/19 04:42:13;;;;;;;5.40;4.90;;;;;;;24.02;64.07;101084.77;1659399;85;21058;-48
2021/08/19 04:44:40;;;;;;;5.20;4.70;;;;;;;24.00;64.04;101074.73;1665974;85;21552;-49
2021/08/19 04:47:07;;;;;;;5.60;4.87;;;;;;;23.97;64.31;101074.08;1665425;85;21013;-50
2021/08/19 04:49:34;;;;;;;5.90;5.03;;;;;;;23.96;64.32;101093.19;1663681;85;21087;-47
2021/08/19 04:52:01;;;;;;;5.95;5.10;;;;;;;23.94;64.36;101103.08;1665100;85;21111;-50
2021/08/19 04:54:28;;;;;;;5.55;5.05;;;;;;;23.91;64.31;101095.78;1661897;85;21039;-50
2021/08/19 04:56:55;;;;;;;5.92;5.10;;;;;;;23.86;64.12;101085.51;1667872;85;21068;-50
2021/08/19 04:59:22;;;;;;;5.00;4.47;;;;;;;23.82;64.45;101085.33;1664649;85;21041;-48
2021/08/19 05:01:49;;;;;;;5.22;4.72;;;;;;;23.81;64.54;101082.31;1662687;85;21049;-52
2021/08/19 05:04:15;;;;;;;5.15;4.70;;;;;;;23.79;64.48;101084.23;1663481;85;21535;-51
2021/08/19 05:06:42;;;;;;;4.47;4.08;;;;;;;23.79;64.40;101079.39;1663908;85;21048;-50
2021/08/19 05:09:09;;;;;;;4.58;4.17;;;;;;;23.77;64.56;101091.94;1663179;85;21512;-51
2021/08/19 05:11:37;;;;;;;4.55;4.15;;;;;;;23.77;64.77;101098.58;1661883;85;21036;-51
2021/08/19 05:14:05;;;;;;;6.08;4.12;;;;;;;23.76;64.55;101093.73;1661433;85;21079;-52
2021/08/19 05:16:33;;;;;;;4.53;3.98;;;;;;;23.75;64.58;101096.04;1665433;85;21068;-48
2021/08/19 05:19:01;;;;;;;4.47;4.08;;;;;;;23.75;64.65;101093.38;1665924;85;21041;-49
2021/08/19 05:21:29;;;;;;;4.10;3.70;;;;;;;23.75;64.39;101098.70;1665742;85;21029;-49
2021/08/19 05:23:55;;;;;;;5.53;3.80;;;;;;;23.74;64.51;101096.98;1660961;85;21104;-49
2021/08/19 05:26:24;;;;;;;4.25;3.77;;;;;;;23.74;64.16;101095.66;1661813;85;21072;-47
2021/08/19 05:28:52;;;;;;;3.83;3.42;;;;;;;23.73;64.13;101095.30;1666250;85;21591;-47
2021/08/19 05:31:18;;;;;;;5.58;3.45;;;;;;;23.73;64.32;101097.95;1659003;85;21533;-49
2021/08/19 05:33:46;;;;;;;3.92;3.52;;;;;;;23.75;64.38;101103.16;1665824;85;21040;-52
2021/08/19 05:36:13;;;;;;;3.87;3.40;;;;;;;23.77;64.06;101102.09;1666759;85;21091;-51
2021/08/19 05:38:40;;;;;;;5.90;3.95;;;;;;;23.80;63.97;101101.03;1664069;85;21056;-48
2021/08/19 05:41:06;;;;;;;4.58;3.55;;;;;;;23.83;63.85;101101.66;1665005;85;21072;-52
2021/08/19 05:43:33;;;;;;;4.20;3.60;;;;;;;23.85;63.71;101109.05;1658273;85;21208;-49
2021/08/19 05:46:00;;;;;;;3.40;3.00;;;;;;;23.88;63.61;101118.61;1663120;85;21185;-53
2021/08/19 05:48:27;;;;;;;3.75;3.35;;;;;;;23.88;63.38;101116.81;1656257;85;21079;-46
2021/08/19 05:50:54;;;;;;;6.05;3.87;;;;;;;23.88;62.76;101122.13;1659076;85;21060;-51
2021/08/19 05:53:20;;;;;;;3.75;3.30;;;;;;;23.87;62.88;101125.73;1664402;85;21080;-51
2021/08/19 05:55:47;;;;;;;3.77;3.35;;;;;;;23.87;62.96;101121.74;1663200;85;21061;-47
2021/08/19 05:58:15;;;;;;;3.75;3.45;;;;;;;23.87;62.90;101128.39;1662993;85;21044;-50
2021/08/19 06:00:48;;;;;;;4.95;3.45;;;;;;;23.87;62.79;101120.41;1662965;85;21541;-50
2021/08/19 06:03:17;;;;;;;3.85;3.45;;;;;;;23.86;62.89;101120.06;1667002;85;21529;-47
2021/08/19 06:05:44;;;;;;;4.80;3.60;;;;;;;23.91;63.29;101119.23;1665187;85;21513;-51
2021/08/19 06:08:10;;;;;;;3.87;3.58;;;;;;;23.97;63.09;101132.09;1663820;85;21020;-48
2021/08/19 06:10:37;;;;;;;4.47;3.60;;;;;;;24.01;62.88;101132.23;1659821;85;21044;-48
2021/08/19 06:13:06;;;;;;;4.15;3.40;;;;;;;24.03;62.37;101127.69;1665340;85;21056;-49
2021/08/19 06:15:32;;;;;;;4.33;3.33;;;;;;;24.02;62.18;101128.63;1663500;85;21068;-46
2021/08/19 06:18:01;;;;;;;4.10;3.80;;;;;;;24.02;62.08;101133.95;1668143;85;21053;-49
2021/08/19 06:20:30;;;;;;;3.98;3.40;;;;;;;24.02;62.14;101128.63;1666199;85;21076;-46
2021/08/19 06:22:57;;;;;;;3.60;3.33;;;;;;;24.04;62.12;101129.88;1661832;85;21156;-47
2021/08/19 06:25:26;;;;;;;5.05;3.55;;;;;;;24.06;62.00;101132.80;1663225;85;21013;-50
2021/08/19 06:27:53;;;;;;;4.15;3.60;;;;;;;24.08;61.87;101129.55;1663516;85;21083;-49
2021/08/19 06:30:21;;;;;;;3.72;3.42;;;;;;;24.09;61.89;101124.59;1663146;85;21044;-47
2021/08/19 06:32:48;;;;;;;4.17;3.37;;;;;;;24.12;61.69;101121.73;1663758;85;21048;-47
2021/08/19 06:35:15;;;;;;;3.80;3.50;;;;;;;24.13;61.43;101128.72;1665852;85;21060;-50
2021/08/19 06:37:41;;;;;;;4.15;3.58;;;;;;;24.16;61.20;101131.18;1665865;85;21044;-47
2021/08/19 06:40:09;;;;;;;3.37;3.08;;;;;;;24.16;60.92;101137.83;1660513;85;21052;-49
2021/08/19 06:42:37;;;;;;;2.83;2.62;;;;;;;24.17;60.70;101135.52;1665136;85;21516;-52
2021/08/19 06:45:05;;;;;;;3.92;2.55;;;;;;;24.17;60.57;101140.02;1664544;85;21083;-49
2021/08/19 06:47:31;;;;;;;3.40;3.20;;;;;;;24.17;60.56;101132.86;1666042;85;21000;-50
2021/08/19 06:49:59;;;;;;;3.15;2.85;;;;;;;24.18;60.75;101139.89;1654039;85;21091;-49
2021/08/19 06:52:27;;;;;;;3.35;2.90;;;;;;;24.19;60.58;101130.94;1664871;85;21060;-50
2021/08/19 06:54:54;;;;;;;3.30;2.80;;;;;;;24.17;60.52;101129.38;1663777;84;21088;-52
2021/08/19 06:57:20;;;;;;;3.17;2.65;;;;;;;24.18;60.62;101133.25;1665126;85;21048;-48
2021/08/19 06:59:47;;;;;;;4.55;3.17;;;;;;;24.20;60.60;101130.00;1665887;85;21611;-48
2021/08/19 07:02:14;;;;;;;3.33;2.80;;;;;;;24.21;60.35;101134.34;1665978;85;21096;-49
2021/08/19 07:04:41;;;;;;;3.95;3.37;;;;;;;24.24;60.36;101128.81;1664205;85;21013;-46
2021/08/19 07:07:07;;;;;;;3.72;3.42;;;;;;;24.29;60.39;101137.80;1663208;85;21016;-46
2021/08/19 07:09:34;;;;;;;3.10;2.87;;;;;;;24.35;60.50;101138.67;1663396;85;21048;-49
2021/08/19 07:12:04;;;;;;;3.87;2.92;;;;;;;24.41;59.83;101138.23;1659751;85;21488;-48
2021/08/19 07:14:31;;;;;;;3.50;3.15;;;;;;;24.46;59.32;101132.58;1666213;85;22300;-50
2021/08/19 07:16:58;;;;;;;3.05;2.85;;;;;;;24.45;59.20;101136.19;1662097;85;21072;-46
2021/08/19 07:19:25;;;;;;;2.98;2.67;;;;;;;24.46;59.24;101132.07;1659727;85;21563;-46
2021/08/19 07:21:53;;;;;;;5.70;3.15;;;;;;;24.49;59.25;101131.00;1663316;85;21075;-48
2021/08/19 07:24:22;;;;;;;3.42;2.67;;;;;;;24.52;58.90;101130.80;1667413;85;21036;-47
2021/08/19 07:26:50;;;;;;;3.90;2.33;;;;;;;24.56;58.91;101130.94;1661395;85;21040;-49
2021/08/19 07:29:18;;;;;;;2.60;2.40;;;;;;;24.58;58.16;101123.69;1660416;85;21056;-49
2021/08/19 07:31:46;;;;;;;4.90;2.90;;;;;;;24.59;57.70;101126.22;1674693;84;21107;-49
2021/08/19 07:34:14;;;;;;;8.13;4.22;;;;;;;24.59;57.69;101128.03;1680359;84;21091;-51
2021/08/19 07:36:40;;;;;;;5.17;3.55;;;;;;;24.57;57.79;101121.97;1681692;84;21479;-46
2021/08/19 07:39:08;;;;;;;9.13;3.98;;;;;;;24.57;58.02;101116.65;1666300;85;21044;-50
2021/08/19 07:41:35;;;;;;;4.33;3.25;;;;;;;24.60;57.73;101124.42;1663312;85;21068;-49
2021/08/19 07:44:03;;;;;;;4.72;3.00;;;;;;;24.63;57.61;101120.19;1660712;85;21060;-47
2021/08/19 07:46:30;;;;;;;2.98;2.67;;;;;;;24.66;57.16;101115.98;1658123;85;21538;-47
2021/08/19 07:48:58;;;;;;;4.83;3.02;;;;;;;24.68;57.48;101109.59;1667890;85;21013;-50
2021/08/19 07:51:26;;;;;;;3.08;2.83;;;;;;;24.73;57.56;101115.44;1663201;85;21048;-47
2021/08/19 07:53:53;;;;;;;4.83;3.33;;;;;;;24.76;57.75;101111.70;1662707;85;21215;-50
2021/08/19 07:56:19;;;;;;;6.47;3.22;;;;;;;24.80;58.26;101110.03;1663490;85;21029;-50
2021/08/19 07:58:46;;;;;;;5.58;2.90;;;;;;;24.83;58.39;101110.29;1664116;85;21648;-49
2021/08/19 08:01:13;;;;;;;3.37;3.00;;;;;;;24.87;58.35;101122.41;1665717;85;21049;-51
2021/08/19 08:03:41;;;;;;;5.65;3.50;;;;;;;24.88;58.41;101124.08;1665545;85;21060;-48
2021/08/19 08:06:08;;;;;;;3.08;2.80;;;;;;;24.92;58.11;101128.21;1650771;84;21195;-50
2021/08/19 08:08:35;;;;;;;2.42;2.22;;;;;;;24.94;57.55;101129.80;1664878;85;21568;-47
2021/08/19 08:11:01;;;;;;;3.00;2.80;;;;;;;24.96;56.74;101132.34;1665274;85;21032;-51
2021/08/19 08:13:28;;;;;;;4.45;3.20;;;;;;;24.97;56.98;101142.04;1665864;85;21028;-50
2021/08/19 08:15:55;;;;;;;4.22;2.98;;;;;;;24.98;56.94;101142.39;1654929;85;21056;-48
2021/08/19 08:18:21;;;;;;;3.70;3.40;;;;;;;24.99;57.26;101148.95;1662788;85;21076;-50
2021/08/19 08:20:48;;;;;;;4.72;3.05;;;;;;;25.01;57.25;101151.49;1668547;85;21033;-48
2021/08/19 08:23:19;;;;;;;4.17;2.83;;;;;;;24.98;57.09;101150.38;1660908;85;21064;-49
2021/08/19 08:25:49;;;;;;;3.45;2.87;;;;;;;24.99;56.65;101148.09;1667127;84;21057;-50
2021/08/19 08:28:19;;;;;;;3.42;3.12;;;;;;;25.01;56.51;101162.14;1639046;87;21511;-50
2021/08/19 08:30:46;;;;;;;3.40;3.08;;;;;;;25.01;56.75;101152.34;1631212;85;21046;-49
2021/08/19 08:33:13;;;;;;;3.10;2.90;;;;;;;25.03;56.43;101154.89;1643086;87;21515;-50
2021/08/19 08:35:40;;;;;;;3.77;3.22;;;;;;;25.04;56.30;101150.77;1638660;87;21010;-50
2021/08/19 08:38:10;;;;;;;4.78;4.37;;;;;;;25.07;55.85;101152.36;1638900;87;21475;-48
2021/08/19 08:40:38;;;;;;;4.08;3.77;;;;;;;25.06;55.74;101159.14;1638907;87;21042;-47
2021/08/19 08:43:06;;;;;;;4.55;3.75;;;;;;;25.06;56.19;101157.30;1642142;86;21109;-50
2021/08/19 08:45:38;;;;;;;3.55;3.25;;;;;;;25.08;56.01;101160.70;1668548;85;21036;-50
2021/08/19 08:48:11;;;;;;;3.85;3.55;;;;;;;25.10;55.58;101157.44;1654212;85;21055;-47
2021/08/19 08:50:43;;;;;;;3.80;3.50;;;;;;;25.14;56.00;101160.27;1661686;85;21056;-49
2021/08/19 08:53:11;;;;;;;4.03;3.72;;;;;;;25.15;55.56;101163.28;1665877;85;21048;-47
2021/08/19 08:55:38;;;;;;;4.28;3.92;;;;;;;25.14;55.41;101154.94;1695759;83;21033;-48
2021/08/19 08:58:07;;;;;;;4.25;3.95;;;;;;;25.14;55.47;101165.59;1683892;83;21073;-48
2021/08/19 09:00:36;;;;;;;3.90;3.60;;;;;;;25.15;55.20;101163.28;1679611;84;21037;-47
2021/08/19 09:03:02;;;;;;;3.72;3.47;;;;;;;25.16;54.98;101166.32;1680873;83;20995;-53
2021/08/19 09:05:30;;;;;;;4.42;4.03;;;;;;;25.17;55.04;101169.81;1688247;84;21093;-48
2021/08/19 09:08:00;;;;;;;3.77;3.47;;;;;;;25.24;55.34;101168.39;1690778;83;21073;-46
2021/08/19 09:10:30;;;;;;;4.47;4.17;;;;;;;25.33;54.91;101166.34;1696045;83;21508;-46
2021/08/19 09:13:06;;;;;;;4.72;4.33;;;;;;;25.39;54.82;101174.72;1692201;83;21486;-46
2021/08/19 09:15:33;;;;;;;3.95;3.60;;;;;;;25.45;54.48;101167.62;1685001;83;21517;-48
2021/08/19 09:18:02;;;;;;;4.72;4.33;;;;;;;25.49;53.63;101182.40;1693093;83;21119;-50
2021/08/19 09:20:43;;;;;;;5.10;4.60;;;;;;;25.49;53.76;101181.06;1692905;83;21123;-50
2021/08/19 09:23:12;;;;;;;4.50;4.12;;;;;;;25.47;53.58;101181.67;1699742;83;21048;-50
2021/08/19 09:25:45;;;;;;;6.20;4.15;;;;;;;25.46;53.17;101188.45;1714776;82;21002;-50
2021/08/19 09:28:26;;;;;;;4.85;3.67;;;;;;;25.43;52.93;101188.20;1716970;82;21088;-50
2021/08/19 09:31:04;;;;;;;4.33;4.03;;;;;;;25.88;51.67;101190.95;1717989;82;21034;-51
2021/08/19 09:33:33;;;;;;;5.25;4.10;;;;;;;25.98;52.27;101194.59;1723500;82;21062;-48
2021/08/19 09:36:04;;;;;;;5.47;4.45;;;;;;;25.62;52.45;101187.16;1702702;83;21076;-52
2021/08/19 09:38:39;;;;;;;4.87;4.33;;;;;;;25.94;51.95;101195.33;1725576;82;21035;-49
2021/08/19 09:41:17;;;;;;;5.65;5.10;;;;;;;26.10;51.67;101194.50;1727948;82;21042;-49
2021/08/19 09:43:48;;;;;;;4.83;4.42;;;;;;;26.15;51.69;101198.14;1722734;82;20995;-50
2021/08/19 09:46:36;;;;;;;4.90;4.50;;;;;;;26.15;51.52;101201.64;1719772;82;21073;-50
2021/08/19 09:49:23;;;;;;;5.00;4.60;;;;;;;26.16;51.44;101199.83;1688856;83;21057;-49
2021/08/19 09:52:05;;;;;;;7.33;4.67;;;;;;;26.17;51.44;101201.54;1722769;82;21596;-49
2021/08/19 09:54:35;;;;;;;4.85;4.20;;;;;;;26.19;51.39;101204.45;1604597;88;21029;-49
2021/08/19 09:57:04;;;;;;;4.60;4.17;;;;;;;26.18;51.26;101209.41;1593069;88;21101;-48
2021/08/19 09:59:36;;;;;;;4.97;4.28;;;;;;;26.24;51.17;101211.59;1601494;89;21037;-49
2021/08/19 10:02:04;;;;;;;4.92;4.53;;;;;;;26.29;51.03;101209.89;1555887;89;21064;-49
2021/08/19 10:04:32;;;;;;;5.20;4.70;;;;;;;26.29;51.03;101209.89;1592805;88;21046;-50
2021/08/19 10:07:00;;;;;;;5.78;5.17;;;;;;;26.32;51.19;101214.97;1588964;88;21161;-49
2021/08/19 10:09:27;;;;;;;4.90;4.28;;;;;;;26.31;50.89;101211.48;1596996;88;21550;-49
2021/08/19 10:11:55;;;;;;;4.90;4.58;;;;;;;26.31;51.20;101206.14;1603090;88;21082;-51
2021/08/19 10:14:24;;;;;;;5.40;4.90;;;;;;;26.33;51.36;101210.02;1607876;88;21189;-49
2021/08/19 10:16:52;;;;;;;4.87;4.37;;;;;;;26.39;51.25;101214.38;1596089;88;21189;-48
2021/08/19 10:19:36;;;;;;;5.37;4.53;;;;;;;26.47;51.07;101207.08;1596467;88;21082;-52
2021/08/19 10:22:15;;;;;;;5.30;4.85;;;;;;;26.53;51.14;101209.25;1592796;89;21076;-50
2021/08/19 10:24:46;;;;;;;6.08;5.58;;;;;;;26.59;50.87;101215.42;1594720;89;21231;-48
2021/08/19 10:27:27;;;;;;;6.37;5.87;;;;;;;26.63;50.91;101210.70;1594515;89;21030;-48
2021/08/19 10:30:01;;;;;;;6.22;5.65;;;;;;;26.66;50.71;101211.30;1603886;89;21118;-49
2021/08/19 10:32:35;;;;;;;6.80;6.10;;;;;;;26.73;50.86;101211.68;1599907;89;21069;-48
2021/08/19 10:35:14;;;;;;;5.67;5.15;;;;;;;26.79;50.51;101221.86;1592993;89;21243;-48
2021/08/19 10:37:53;;;;;;;6.05;5.50;;;;;;;26.80;50.36;101221.72;1599909;88;21104;-48
2021/08/19 10:40:28;;;;;;;6.65;6.05;;;;;;;26.80;50.14;101223.06;1600250;89;21137;-50
2021/08/19 10:42:58;;;;;;;7.03;5.80;;;;;;;26.80;49.96;101218.20;1601501;89;21097;-51
2021/08/19 10:45:34;;;;;;;6.62;5.55;;;;;;;26.82;49.38;101217.10;1586099;89;21176;-49
2021/08/19 10:48:08;;;;;;;5.00;4.60;;;;;;;26.74;50.03;101214.22;1595354;87;21110;-50
2021/08/19 10:50:40;;;;;;;7.37;6.10;;;;;;;26.74;50.03;101214.22;1602014;87;21054;-51
2021/08/19 10:53:16;;;;;;;5.85;5.35;;;;;;;26.70;49.97;101205.20;1604822;88;21128;-48
2021/08/19 10:55:46;;;;;;;8.73;6.50;;;;;;;26.68;50.14;101212.02;1621627;88;21507;-51
2021/08/19 10:58:33;;;;;;;6.45;5.83;;;;;;;26.69;50.80;101210.20;1624593;87;21033;-48
2021/08/19 11:01:17;;;;;;;5.33;4.80;;;;;;;26.72;50.68;101209.48;1623062;88;21501;-52
2021/08/19 11:03:52;;;;;;;5.60;5.10;;;;;;;26.85;50.07;101216.86;1603512;88;21228;-50
2021/08/19 11:06:26;;;;;;;5.90;4.60;;;;;;;26.85;50.07;101216.86;1582535;89;21115;-49
2021/08/19 11:08:58;;;;;;;4.95;4.55;;;;;;;26.90;50.19;101214.65;1570937;89;21207;-48
2021/08/19 11:11:33;;;;;;;5.00;4.50;;;;;;;26.93;49.50;101211.73;1578778;88;21116;-52
2021/08/19 11:14:10;;;;;;;6.40;5.83;;;;;;;26.97;49.32;101206.50;1548848;91;21145;-50
2021/08/19 11:16:38;;;;;;;4.92;4.25;;;;;;;27.01;49.58;101208.42;1574502;89;21222;-50
2021/08/19 11:19:21;;;;;;;5.03;4.62;;;;;;;27.07;49.49;101208.77;1525699;92;21091;-51
2021/08/19 11:21:57;;;;;;;7.60;4.97;;;;;;;27.11;49.31;101204.86;1529030;93;21573;-53
2021/08/19 11:24:25;;;;;;;7.42;5.05;;;;;;;27.16;48.95;101213.32;1564392;90;21056;-51
2021/08/19 11:27:08;;;;;;;6.17;5.65;;;;;;;27.20;48.82;101195.23;1565340;91;21588;-50
2021/08/19 11:29:44;;;;;;;5.80;5.30;;;;;;;27.25;49.02;101196.53;1562401;90;21073;-49
2021/08/19 11:32:13;;;;;;;6.08;5.50;;;;;;;27.32;48.86;101187.03;1577173;90;21063;-52